createdAt,value
2018-02-08T00:00:45.484Z,27.57
2018-02-08T00:03:13.823Z,29.50
2018-02-08T00:05:42.155Z,30.20
2018-02-08T00:08:10.485Z,25.20
2018-02-08T00:10:38.830Z,26.20
2018-02-08T00:13:07.131Z,25.30
2018-02-08T00:15:36.198Z,29.10
2018-02-08T00:18:04.543Z,27.00
2018-02-08T00:20:32.905Z,26.90
2018-02-08T00:23:01.987Z,24.23
2018-02-08T00:25:31.091Z,24.63
2018-02-08T00:28:00.179Z,26.37
2018-02-08T00:30:28.505Z,29.30
2018-02-08T00:32:56.950Z,27.90
2018-02-08T00:35:26.077Z,29.30
2018-02-08T00:37:54.508Z,27.37
2018-02-08T00:40:22.817Z,29.77
2018-02-08T00:42:51.916Z,30.40
2018-02-08T00:45:21.768Z,35.23
2018-02-08T00:47:50.111Z,30.00
2018-02-08T00:50:18.427Z,25.83
2018-02-08T00:52:47.505Z,31.30
2018-02-08T00:55:16.583Z,33.57
2018-02-08T00:57:44.889Z,27.63
2018-02-08T01:00:13.965Z,28.50
2018-02-08T01:02:42.266Z,28.87
2018-02-08T01:05:11.337Z,28.27
2018-02-08T01:07:40.430Z,24.90
2018-02-08T01:10:08.749Z,34.03
2018-02-08T01:12:37.825Z,29.83
2018-02-08T01:15:06.118Z,29.57
2018-02-08T01:17:34.425Z,30.37
2018-02-08T01:20:03.515Z,27.87
2018-02-08T01:22:31.837Z,29.43
2018-02-08T01:25:00.151Z,30.53
2018-02-08T01:27:28.483Z,27.80
2018-02-08T01:29:56.776Z,29.47
2018-02-08T01:32:25.060Z,30.77
2018-02-08T01:34:53.596Z,25.67
2018-02-08T01:37:22.928Z,29.73
2018-02-08T01:39:51.287Z,28.70
2018-02-08T01:42:20.449Z,30.10
2018-02-08T01:44:48.800Z,30.97
2018-02-08T01:47:17.139Z,30.83
2018-02-08T01:49:46.288Z,33.47
2018-02-08T01:52:15.393Z,29.57
2018-02-08T01:54:43.833Z,31.63
2018-02-08T01:57:12.118Z,37.90
2018-02-08T01:59:40.408Z,30.97
2018-02-08T02:02:08.710Z,30.53
2018-02-08T02:04:37.793Z,28.00
2018-02-08T02:07:06.894Z,29.60
2018-02-08T02:09:36.063Z,29.00
2018-02-08T02:12:04.406Z,32.77
2018-02-08T02:14:32.709Z,30.00
2018-02-08T02:17:01.003Z,30.67
2018-02-08T02:19:29.337Z,30.50
2018-02-08T02:21:57.651Z,31.47
2018-02-08T02:24:25.960Z,31.10
2018-02-08T02:26:54.297Z,29.80
2018-02-08T02:29:22.613Z,30.00
2018-02-08T02:31:50.901Z,33.90
2018-02-08T02:34:19.197Z,33.67
2018-02-08T02:36:47.525Z,28.50
2018-02-08T02:39:15.873Z,34.97
2018-02-08T02:41:44.970Z,31.77
2018-02-08T02:44:13.290Z,29.10
2018-02-08T02:46:41.606Z,31.00
2018-02-08T02:49:09.903Z,30.87
2018-02-08T02:51:38.987Z,34.30
2018-02-08T02:54:07.287Z,29.87
2018-02-08T02:56:35.602Z,32.47
2018-02-08T02:59:03.918Z,29.40
2018-02-08T03:01:32.329Z,29.93
2018-02-08T03:04:00.663Z,33.43
2018-02-08T03:06:28.959Z,31.13
2018-02-08T03:08:57.283Z,30.40
2018-02-08T03:11:25.593Z,30.00
2018-02-08T03:13:53.890Z,31.03
2018-02-08T03:16:22.207Z,33.83
2018-02-08T03:18:50.524Z,30.47
2018-02-08T03:21:19.585Z,28.37
2018-02-08T03:23:48.669Z,29.27
2018-02-08T03:26:17.012Z,29.53
2018-02-08T03:28:46.102Z,33.87
2018-02-08T03:31:15.212Z,30.03
2018-02-08T03:33:43.520Z,34.17
2018-02-08T03:36:11.922Z,37.70
2018-02-08T03:38:40.226Z,32.20
2018-02-08T03:41:08.546Z,32.10
2018-02-08T03:43:37.612Z,33.83
2018-02-08T03:46:05.911Z,37.63
2018-02-08T03:48:34.222Z,37.47
2018-02-08T03:51:02.527Z,37.23
2018-02-08T03:53:30.838Z,35.87
2018-02-08T03:55:59.149Z,33.27
2018-02-08T03:58:28.215Z,38.43
2018-02-08T04:00:57.280Z,37.80
2018-02-08T04:03:25.570Z,38.97
2018-02-08T04:05:53.878Z,36.93
2018-02-08T04:08:22.210Z,36.10
2018-02-08T04:10:50.508Z,35.43
2018-02-08T04:13:18.819Z,36.87
2018-02-08T04:15:47.112Z,38.40
2018-02-08T04:18:15.398Z,37.97
2018-02-08T04:20:43.709Z,40.13
2018-02-08T04:23:12.029Z,33.93
2018-02-08T04:25:41.132Z,37.50
2018-02-08T04:28:09.440Z,35.77
2018-02-08T04:30:37.768Z,36.53
2018-02-08T04:33:06.868Z,35.90
2018-02-08T04:35:36.026Z,38.73
2018-02-08T04:38:05.137Z,37.27
2018-02-08T04:40:51.692Z,36.00
2018-02-08T04:43:37.530Z,38.83
2018-02-08T04:46:24.223Z,36.83
2018-02-08T04:48:53.301Z,41.93
2018-02-08T04:51:21.584Z,40.33
2018-02-08T04:53:49.882Z,41.90
2018-02-08T04:56:18.946Z,40.17
2018-02-08T04:58:47.241Z,38.37
2018-02-08T05:01:15.551Z,41.60
2018-02-08T05:03:44.672Z,36.90
2018-02-08T05:06:12.994Z,39.00
2018-02-08T05:08:41.296Z,40.83
2018-02-08T05:11:09.606Z,41.13
2018-02-08T05:13:37.918Z,37.07
2018-02-08T05:16:07.022Z,41.07
2018-02-08T05:18:35.350Z,44.17
2018-02-08T05:21:03.670Z,47.80
2018-02-08T05:23:31.967Z,39.90
2018-02-08T05:26:00.282Z,42.80
2018-02-08T05:28:28.577Z,42.73
2018-02-08T05:30:57.672Z,40.50
2018-02-08T05:33:25.992Z,43.13
2018-02-08T05:35:55.094Z,37.13
2018-02-08T05:38:23.378Z,46.30
2018-02-08T05:40:51.714Z,39.30
2018-02-08T05:43:19.984Z,44.67
2018-02-08T05:45:48.322Z,43.93
2018-02-08T05:48:16.654Z,45.07
2018-02-08T05:50:45.021Z,43.53
2018-02-08T05:53:13.274Z,39.07
2018-02-08T05:55:41.597Z,41.50
2018-02-08T05:58:09.906Z,46.97
2018-02-08T06:00:39.062Z,43.53
2018-02-08T06:03:07.425Z,41.87
2018-02-08T06:05:35.766Z,43.10
2018-02-08T06:08:04.845Z,43.03
2018-02-08T06:10:33.169Z,46.43
2018-02-08T06:13:01.459Z,45.77
2018-02-08T06:15:29.818Z,52.50
2018-02-08T06:17:58.866Z,49.43
2018-02-08T06:20:27.171Z,45.53
2018-02-08T06:22:55.466Z,43.40
2018-02-08T06:25:24.542Z,46.40
2018-02-08T06:27:52.842Z,49.90
2018-02-08T06:30:21.188Z,47.80
2018-02-08T06:32:49.562Z,46.80
2018-02-08T06:35:17.880Z,46.10
2018-02-08T06:37:46.189Z,50.70
2018-02-08T06:40:15.273Z,41.07
2018-02-08T06:42:43.580Z,48.53
2018-02-08T06:45:12.628Z,49.50
2018-02-08T06:47:40.926Z,46.70
2018-02-08T06:50:09.266Z,49.77
2018-02-08T06:52:37.579Z,47.10
2018-02-08T06:55:05.936Z,48.00
2018-02-08T06:57:35.014Z,43.70
2018-02-08T07:00:03.324Z,50.83
2018-02-08T07:02:31.634Z,48.23
2018-02-08T07:05:00.706Z,50.57
2018-02-08T07:07:29.050Z,49.40
2018-02-08T07:09:57.372Z,48.83
2018-02-08T07:12:25.690Z,47.73
2018-02-08T07:14:54.024Z,50.13
2018-02-08T07:17:22.338Z,46.20
2018-02-08T07:19:50.646Z,48.53
2018-02-08T07:22:19.714Z,49.40
2018-02-08T07:24:48.044Z,52.63
2018-02-08T07:27:16.368Z,48.27
2018-02-08T07:29:44.674Z,49.63
2018-02-08T07:32:13.026Z,49.83
2018-02-08T07:34:41.348Z,45.63
2018-02-08T07:37:10.458Z,46.70
2018-02-08T07:39:39.532Z,46.23
2018-02-08T07:42:07.818Z,42.33
2018-02-08T07:44:36.160Z,49.13
2018-02-08T07:47:04.540Z,48.90
2018-02-08T07:49:33.632Z,49.27
2018-02-08T07:52:01.985Z,48.47
2018-02-08T07:54:31.094Z,44.13
2018-02-08T07:57:00.170Z,44.63
2018-02-08T07:59:28.516Z,46.97
2018-02-08T08:01:56.846Z,48.90
2018-02-08T08:04:25.958Z,46.83
2018-02-08T08:06:55.028Z,42.30
2018-02-08T08:09:23.358Z,43.17
2018-02-08T08:11:51.702Z,43.53
2018-02-08T08:14:21.715Z,41.73
2018-02-08T08:16:50.028Z,47.33
2018-02-08T08:19:19.146Z,46.03
2018-02-08T08:21:47.520Z,48.10
2018-02-08T08:24:15.834Z,46.17
2018-02-08T08:26:44.394Z,43.80
2018-02-08T08:29:13.505Z,49.60
2018-02-08T08:31:41.845Z,47.17
2018-02-08T08:34:10.906Z,48.37
2018-02-08T08:36:39.992Z,49.13
2018-02-08T08:39:08.306Z,46.27
2018-02-08T08:41:36.690Z,47.83
2018-02-08T08:44:05.934Z,46.47
2018-02-08T08:46:34.240Z,48.17
2018-02-08T08:49:02.560Z,46.67
2018-02-08T08:51:30.906Z,44.40
2018-02-08T08:53:59.952Z,44.17
2018-02-08T08:56:28.303Z,48.07
2018-02-08T08:58:56.635Z,47.03
2018-02-08T09:01:25.708Z,47.00
2018-02-08T09:03:54.280Z,44.73
2018-02-08T09:06:22.639Z,43.23
2018-02-08T09:08:50.945Z,42.93
2018-02-08T09:11:20.666Z,49.10
2018-02-08T09:13:49.010Z,43.47
2018-02-08T09:16:17.334Z,45.00
2018-02-08T09:18:46.435Z,42.90
2018-02-08T09:21:15.632Z,42.50
2018-02-08T09:23:43.978Z,43.70
2018-02-08T09:26:12.282Z,42.63
2018-02-08T09:28:40.562Z,41.63
2018-02-08T09:31:08.875Z,40.73
2018-02-08T09:33:37.172Z,40.83
2018-02-08T09:36:06.262Z,41.97
2018-02-08T09:38:34.564Z,48.53
2018-02-08T09:41:02.944Z,44.17
2018-02-08T09:43:32.421Z,43.47
2018-02-08T09:46:00.872Z,43.03
2018-02-08T09:48:29.510Z,45.53
2018-02-08T09:50:58.606Z,40.67
2018-02-08T09:53:27.709Z,40.13
2018-02-08T09:55:56.866Z,39.63
2018-02-08T09:58:25.190Z,45.20
2018-02-08T10:00:53.499Z,43.00
2018-02-08T10:03:21.808Z,40.03
2018-02-08T10:05:50.116Z,45.03
2018-02-08T10:08:18.455Z,44.10
2018-02-08T10:10:46.783Z,43.90
2018-02-08T10:13:15.862Z,43.40
2018-02-08T10:15:44.391Z,41.13
2018-02-08T10:18:12.721Z,41.60
2018-02-08T10:20:41.695Z,41.73
2018-02-08T10:23:10.042Z,42.63
2018-02-08T10:25:38.378Z,44.60
2018-02-08T10:28:06.961Z,43.63
2018-02-08T10:30:35.247Z,42.80
2018-02-08T10:33:03.540Z,40.87
2018-02-08T10:35:31.867Z,44.13
2018-02-08T10:38:00.190Z,40.77
2018-02-08T10:40:28.544Z,43.30
2018-02-08T10:42:57.798Z,43.63
2018-02-08T10:45:27.622Z,43.33
2018-02-08T10:47:55.960Z,44.60
2018-02-08T10:50:24.273Z,41.57
2018-02-08T10:52:52.630Z,42.83
2018-02-08T10:55:21.734Z,42.20
2018-02-08T10:57:50.037Z,38.17
2018-02-08T11:00:18.568Z,39.70
2018-02-08T11:02:46.865Z,42.63
2018-02-08T11:05:15.167Z,39.47
2018-02-08T11:07:44.160Z,41.30
2018-02-08T11:10:12.526Z,44.73
2018-02-08T11:12:41.590Z,37.07
2018-02-08T11:15:09.878Z,37.73
2018-02-08T11:17:38.227Z,43.03
2018-02-08T11:20:06.514Z,37.30
2018-02-08T11:22:34.831Z,36.17
2018-02-08T11:25:03.205Z,38.40
2018-02-08T11:27:32.273Z,40.73
2018-02-08T11:30:00.583Z,39.73
2018-02-08T11:32:28.879Z,34.93
2018-02-08T11:34:57.201Z,35.67
2018-02-08T11:37:25.523Z,37.77
2018-02-08T11:39:53.896Z,35.63
2018-02-08T11:42:23.259Z,38.33
2018-02-08T11:44:52.345Z,35.20
2018-02-08T11:47:22.095Z,34.70
2018-02-08T11:49:50.415Z,34.17
2018-02-08T11:52:18.749Z,39.13
2018-02-08T11:54:47.829Z,36.73
2018-02-08T11:57:16.923Z,36.57
2018-02-08T11:59:46.065Z,34.50
2018-02-08T12:02:14.400Z,37.23
2018-02-08T12:04:43.475Z,39.00
2018-02-08T12:07:11.779Z,38.10
2018-02-08T12:09:40.124Z,37.90
2018-02-08T12:12:08.429Z,36.23
2018-02-08T12:14:36.817Z,38.37
2018-02-08T12:17:05.131Z,38.47
2018-02-08T12:19:33.471Z,38.83
2018-02-08T12:22:01.817Z,35.47
2018-02-08T12:24:30.126Z,40.97
2018-02-08T12:26:58.467Z,33.93
2018-02-08T12:29:26.807Z,32.27
2018-02-08T12:31:55.854Z,36.70
2018-02-08T12:34:24.182Z,34.40
2018-02-08T12:36:53.300Z,42.43
2018-02-08T12:39:21.645Z,32.37
2018-02-08T12:41:49.971Z,33.37
2018-02-08T12:44:18.288Z,34.60
2018-02-08T12:46:46.581Z,37.27
2018-02-08T12:49:14.918Z,33.53
2018-02-08T12:51:43.237Z,32.50
2018-02-08T12:54:11.593Z,33.07
2018-02-08T12:56:40.719Z,28.50
2018-02-08T12:59:09.029Z,29.40
2018-02-08T13:01:37.424Z,31.60
2018-02-08T13:04:05.810Z,26.93
2018-02-08T13:06:34.144Z,31.47
2018-02-08T13:09:02.471Z,26.43
2018-02-08T13:11:30.809Z,24.30
2018-02-08T13:13:59.633Z,34.43
2018-02-08T13:16:27.960Z,32.17
2018-02-08T13:18:57.061Z,33.37
2018-02-08T13:21:26.160Z,29.20
2018-02-08T13:23:55.245Z,32.03
2018-02-08T13:26:24.347Z,31.63
2018-02-08T13:28:53.731Z,32.77
2018-02-08T13:31:37.859Z,28.87
2018-02-08T13:34:06.177Z,27.50
2018-02-08T13:36:36.937Z,31.50
2018-02-08T13:39:05.262Z,27.30
2018-02-08T13:41:33.659Z,30.90
2018-02-08T13:44:01.952Z,29.90
2018-02-08T13:46:30.279Z,24.53
2018-02-08T13:52:04.971Z,22.63
2018-02-08T13:54:34.336Z,24.60
2018-02-08T13:57:04.939Z,25.13
2018-02-08T13:59:39.585Z,27.03
2018-02-08T14:02:08.267Z,28.47
2018-02-08T14:04:36.647Z,26.93
2018-02-08T14:07:04.965Z,27.60
2018-02-08T14:09:33.283Z,36.17
2018-02-08T14:12:01.608Z,27.73
2018-02-08T14:14:30.023Z,28.50
2018-02-08T14:16:58.345Z,29.73
2018-02-08T14:19:26.691Z,29.30
2018-02-08T14:21:55.011Z,25.70
2018-02-08T14:24:23.343Z,29.37
2018-02-08T14:26:51.665Z,25.10
2018-02-08T14:29:20.734Z,23.17
2018-02-08T14:31:49.087Z,27.20
2018-02-08T14:34:17.464Z,24.83
2018-02-08T14:36:45.775Z,24.60
2018-02-08T14:39:14.104Z,25.63
2018-02-08T14:41:43.523Z,26.60
2018-02-08T14:44:11.963Z,22.70
2018-02-08T14:46:40.292Z,22.93
2018-02-08T14:49:08.606Z,24.47
2018-02-08T14:51:36.951Z,23.37
2018-02-08T14:54:05.267Z,25.20
2018-02-08T14:56:33.637Z,26.60
2018-02-08T14:59:02.495Z,26.33
2018-02-08T15:01:31.606Z,24.23
2018-02-08T15:04:00.702Z,26.80
2018-02-08T15:06:29.781Z,23.70
2018-02-08T15:08:59.582Z,24.53
2018-02-08T15:11:27.891Z,24.50
2018-02-08T15:13:57.049Z,26.17
2018-02-08T15:16:26.417Z,29.40
2018-02-08T15:18:54.736Z,26.57
2018-02-08T15:21:23.087Z,22.40
2018-02-08T15:23:51.425Z,22.20
2018-02-08T15:26:19.759Z,21.73
2018-02-08T15:28:48.145Z,22.53
2018-02-08T15:31:16.447Z,29.27
2018-02-08T15:33:44.773Z,26.60
2018-02-08T15:36:13.206Z,17.90
2018-02-08T15:38:41.510Z,20.73
2018-02-08T15:41:09.880Z,19.03
2018-02-08T15:43:38.215Z,15.77
2018-02-08T15:46:07.312Z,18.27
2018-02-08T15:48:36.411Z,20.93
2018-02-08T15:51:05.542Z,15.17
2018-02-08T15:53:33.903Z,19.20
2018-02-08T15:56:02.274Z,15.43
2018-02-08T15:58:31.363Z,17.33
2018-02-08T16:01:00.469Z,14.57
2018-02-08T16:03:29.642Z,13.53
2018-02-08T16:05:57.963Z,16.43
2018-02-08T16:08:27.055Z,14.03
2018-02-08T16:10:56.148Z,18.03
2018-02-08T16:13:24.479Z,13.37
2018-02-08T16:15:52.789Z,12.20
2018-02-08T16:18:21.131Z,13.17
2018-02-08T16:20:49.457Z,14.60
2018-02-08T16:23:17.815Z,13.63
2018-02-08T16:25:46.132Z,11.80
2018-02-08T16:28:15.243Z,13.20
2018-02-08T16:30:44.361Z,15.30
2018-02-08T16:33:13.747Z,13.33
2018-02-08T16:35:42.077Z,14.03
2018-02-08T16:38:10.379Z,15.83
2018-02-08T16:40:38.773Z,14.83
2018-02-08T16:43:07.218Z,13.90
2018-02-08T16:45:35.509Z,13.10
2018-02-08T16:48:03.839Z,13.23
2018-02-08T16:50:32.205Z,18.50
2018-02-08T16:53:00.547Z,13.03
2018-02-08T16:55:29.237Z,14.97
2018-02-08T16:57:57.623Z,18.50
2018-02-08T17:00:26.089Z,12.53
2018-02-08T17:02:55.173Z,16.10
2018-02-08T17:05:23.504Z,13.43
2018-02-08T17:07:51.837Z,16.77
2018-02-08T17:10:20.155Z,12.70
2018-02-08T17:12:48.719Z,11.17
2018-02-08T17:15:17.801Z,14.73
2018-02-08T17:17:46.117Z,15.40
2018-02-08T17:20:14.501Z,14.43
2018-02-08T17:22:42.828Z,14.57
2018-02-08T17:25:11.137Z,12.20
2018-02-08T17:27:40.315Z,15.30
2018-02-08T17:30:08.952Z,13.60
2018-02-08T17:32:37.284Z,19.07
2018-02-08T17:35:05.651Z,16.13
2018-02-08T17:37:34.020Z,18.80
2018-02-08T17:40:02.340Z,15.37
2018-02-08T17:42:30.791Z,15.57
2018-02-08T17:44:59.097Z,16.43
2018-02-08T17:47:27.451Z,14.90
2018-02-08T17:49:55.770Z,16.00
2018-02-08T17:52:24.079Z,19.53
2018-02-08T17:54:53.166Z,15.57
2018-02-08T17:57:22.255Z,16.63
2018-02-08T17:59:50.580Z,19.93
2018-02-08T18:02:18.966Z,15.30
2018-02-08T18:04:47.307Z,16.33
2018-02-08T18:07:15.641Z,20.73
2018-02-08T18:09:43.953Z,23.60
2018-02-08T18:12:12.264Z,24.77
2018-02-08T18:14:40.590Z,15.37
2018-02-08T18:17:09.166Z,21.33
2018-02-08T18:19:38.241Z,20.50
2018-02-08T18:22:07.438Z,21.67
2018-02-08T18:24:36.529Z,18.83
2018-02-08T18:27:05.640Z,21.43
2018-02-08T18:29:34.714Z,19.83
2018-02-08T18:32:03.024Z,23.03
2018-02-08T18:34:32.139Z,20.93
2018-02-08T18:37:00.455Z,19.93
2018-02-08T18:39:28.789Z,23.03
2018-02-08T18:41:57.850Z,18.63
2018-02-08T18:44:26.154Z,22.83
2018-02-08T18:46:54.547Z,23.07
2018-02-08T18:49:22.864Z,25.13
2018-02-08T18:51:51.213Z,23.07
2018-02-08T18:54:20.313Z,21.23
2018-02-08T18:56:49.406Z,23.47
2018-02-08T18:59:17.724Z,26.53
2018-02-08T19:01:46.053Z,23.00
2018-02-08T19:04:14.672Z,24.67
2018-02-08T19:06:43.756Z,23.20
2018-02-08T19:09:12.350Z,25.20
2018-02-08T19:11:41.444Z,23.37
2018-02-08T19:14:10.520Z,25.47
2018-02-08T19:16:38.836Z,28.83
2018-02-08T19:19:07.898Z,31.17
2018-02-08T19:21:36.236Z,30.50
2018-02-08T19:24:04.636Z,34.23
2018-02-08T19:26:32.969Z,35.70
2018-02-08T19:29:01.308Z,33.53
2018-02-08T19:31:29.611Z,36.10
2018-02-08T19:33:57.911Z,39.37
2018-02-08T19:36:26.240Z,35.30
2018-02-08T19:38:54.530Z,41.07
2018-02-08T19:41:22.875Z,46.13
2018-02-08T19:43:51.957Z,45.70
2018-02-08T19:46:20.282Z,44.83
2018-02-08T19:48:48.593Z,40.10
2018-02-08T19:51:16.908Z,40.93
2018-02-08T19:53:45.236Z,45.80
2018-02-08T19:56:13.542Z,42.60
2018-02-08T19:58:41.872Z,44.77
2018-02-08T20:01:10.942Z,40.40
2018-02-08T20:03:39.250Z,41.53
2018-02-08T20:06:08.360Z,43.27
2018-02-08T20:08:37.462Z,41.80
2018-02-08T20:11:05.815Z,40.60
2018-02-08T20:13:34.150Z,43.07
2018-02-08T20:16:02.467Z,38.50
2018-02-08T20:18:30.780Z,35.63
2018-02-08T20:20:59.902Z,43.70
2018-02-08T20:23:28.212Z,43.40
2018-02-08T20:25:56.534Z,42.97
2018-02-08T20:28:24.899Z,42.80
2018-02-08T20:30:58.752Z,41.47
2018-02-08T20:33:27.056Z,42.50
2018-02-08T20:35:55.373Z,49.30
2018-02-08T20:38:23.676Z,46.70
2018-02-08T20:40:52.753Z,41.37
2018-02-08T20:43:26.590Z,41.03
2018-02-08T20:45:55.700Z,43.93
2018-02-08T20:48:24.026Z,45.00
2018-02-08T20:50:52.378Z,43.53
2018-02-08T20:53:20.692Z,41.70
2018-02-08T20:55:48.995Z,41.87
2018-02-08T20:58:17.320Z,50.90
2018-02-08T21:00:45.607Z,42.30
2018-02-08T21:03:13.937Z,41.33
2018-02-08T21:05:42.261Z,43.23
2018-02-08T21:08:10.576Z,42.60
2018-02-08T21:10:38.923Z,42.17
2018-02-08T21:13:07.242Z,44.17
2018-02-08T21:15:36.104Z,46.27
2018-02-08T21:18:04.394Z,44.77
2018-02-08T21:20:32.698Z,43.80
2018-02-08T21:23:01.022Z,49.30
2018-02-08T21:25:30.099Z,44.87
2018-02-08T21:27:58.443Z,44.23
2018-02-08T21:30:26.892Z,44.47
2018-02-08T21:32:56.006Z,47.47
2018-02-08T21:35:24.327Z,46.73
2018-02-08T21:37:52.662Z,46.30
2018-02-08T21:40:21.750Z,48.40
2018-02-08T21:42:50.102Z,56.90
2018-02-08T21:45:19.189Z,44.70
2018-02-08T21:47:47.487Z,48.53
2018-02-08T21:50:15.792Z,43.70
2018-02-08T21:52:44.144Z,51.63
2018-02-08T21:55:12.475Z,46.07
2018-02-08T21:57:41.573Z,47.63
2018-02-08T22:00:10.634Z,46.00
2018-02-08T22:02:38.975Z,50.93
2018-02-08T22:05:07.296Z,44.60
2018-02-08T22:07:35.621Z,44.13
2018-02-08T22:10:04.688Z,48.33
2018-02-08T22:12:33.020Z,49.07
2018-02-08T22:15:01.310Z,43.03
2018-02-08T22:17:29.616Z,40.40
2018-02-08T22:19:57.906Z,42.77
2018-02-08T22:22:26.266Z,43.40
2018-02-08T22:24:55.298Z,43.67
2018-02-08T22:27:23.708Z,41.53
2018-02-08T22:29:52.782Z,43.50
2018-02-08T22:32:21.084Z,44.23
2018-02-08T22:34:50.170Z,46.50
2018-02-08T22:37:18.489Z,45.03
2018-02-08T22:39:46.800Z,51.47
2018-02-08T22:42:15.166Z,44.70
2018-02-08T22:44:43.454Z,47.00
2018-02-08T22:47:11.792Z,44.80
2018-02-08T22:49:40.867Z,47.93
2018-02-08T22:52:09.166Z,47.00
2018-02-08T22:54:37.482Z,45.17
2018-02-08T22:57:05.798Z,41.40
2018-02-08T22:59:34.088Z,39.43
2018-02-08T23:02:02.418Z,50.20
2018-02-08T23:04:31.474Z,42.50
2018-02-08T23:07:00.638Z,45.07
2018-02-08T23:09:28.980Z,44.20
2018-02-08T23:11:57.297Z,42.73
2018-02-08T23:14:25.607Z,47.53
2018-02-08T23:16:53.911Z,44.20
2018-02-08T23:19:22.246Z,48.07
2018-02-08T23:21:50.590Z,44.70
2018-02-08T23:24:18.902Z,43.97
2018-02-08T23:26:47.214Z,43.00
2018-02-08T23:29:15.534Z,44.73
2018-02-08T23:31:44.640Z,49.90
2018-02-08T23:34:13.774Z,46.93
2018-02-08T23:36:42.126Z,40.57
2018-02-08T23:39:11.186Z,44.40
2018-02-08T23:41:39.578Z,44.40
2018-02-08T23:44:08.022Z,40.50
2018-02-08T23:46:36.364Z,45.70
2018-02-08T23:49:05.464Z,44.70
2018-02-08T23:51:33.896Z,45.07
2018-02-08T23:54:02.211Z,39.87
2018-02-08T23:56:30.519Z,42.20
2018-02-08T23:58:59.575Z,43.47
